الصفحة الرئيسية
METAR-TAF:

METAR-TAF

مطار :

هانوي, فيتنام

دائرة عرض: 21-01N, خط طول: 105-48E, ارتفاع: 6 متر

مراقبة الطقس الحالي

تاريخ ووقت الإصدار 36 دقيقة قبل الساعة 06:30UTC
ريح 5 عقدة من الجنوب/الجنوب الغربي, الاتجاه يتراوح بين الجنوب الشرقي و الغرب/الشمال الغربي
درجة الحرارة 26°درجة مئوية
الرطوبة 51%
ضغط 1015 hPa
الرؤية: 7000 متر
غيوم قليلة على ارتفاع 900 قدم
غيوم متفرقة على ارتفاع 3000 قدم

METAR: VVNB 190630Z 20005KT 130V300 7000 FEW009 SCT030 26/15 Q1015 NOSIG

زمن: 14:06 (07:06 UTC)

توقعات

تاريخ ووقت الإصدار 2ساعات و 6 دقيقة قبل الساعة 05:00UTC
التوقعات صالحة من19 الساعة 06 UTC إلى 20 الساعة 06 UTC
ريح 5 عقدة من الجنوب الشرقي
الرؤية 10 كم أو أكثر
غيوم قليلة على ارتفاع 2000 قدم
أصبح
من 19 الساعة 14 UTC إلى 19 الساعة 15 UTC
الرؤية: 4000 متر
غشاء
أصبح
من 19 الساعة 20 UTC إلى 19 الساعة 22 UTC
الرؤية: 2000 متر
غشاء
أصبح
من 20 الساعة 03 UTC إلى 20 الساعة 04 UTC
الرؤية: 6000 متر
غيوم متفرقة على ارتفاع 1000 قدم
غيوم مفككة على ارتفاع 4000 قدم

TAF: VVNB 190500Z 1906/2006 14005KT 9999 FEW020 BECMG 1914/1915 4000 BR BECMG 1920/1922 2000 BR BECMG 2003/2004 6000 NSW SCT010 BKN040

أرصاد الطقس والتوقعات من أكثر من 4000 مطار (تقارير الطقس للمطار METAR والتنبؤ بالطقس بالمطارTAF).

المحطات المتاحة هي النقط الصفراء والحمراء على الخريطة.

حرك المؤشر فوق النقطة لمعرفة اسم المحطة.

ثم انقر لمعرفة أرصاد وتوقعات الطقس.

لتغيير الخارطة: اضغط على الأزرار الخضراء مع رمز الصليب الأسود للتكبير. على الزر الأخضر مع شرطة للتصغير، أو على الأسهم الخضراء للخرائط المجاورة.


METAR-TAF: